createdAt,value
2022-09-04T00:02:10.263Z,18.69
2022-09-04T00:04:51.339Z,18.77
2022-09-04T00:07:28.489Z,18.79
2022-09-04T00:10:11.514Z,18.81
2022-09-04T00:12:47.502Z,18.93
2022-09-04T00:15:22.225Z,19.00
2022-09-04T00:17:58.613Z,19.05
2022-09-04T00:20:37.830Z,19.13
2022-09-04T00:23:15.033Z,19.11
2022-09-04T00:25:54.676Z,19.17
2022-09-04T00:28:34.941Z,19.16
2022-09-04T00:31:14.635Z,19.07
2022-09-04T00:33:50.158Z,19.12
2022-09-04T00:36:19.660Z,19.12
2022-09-04T00:38:54.970Z,19.13
2022-09-04T00:41:31.878Z,19.21
2022-09-04T00:44:28.450Z,19.31
2022-09-04T00:47:18.962Z,19.36
2022-09-04T00:50:12.061Z,19.54
2022-09-04T00:52:59.686Z,19.74
2022-09-04T00:55:56.954Z,19.75
2022-09-04T00:58:59.195Z,19.76
2022-09-04T01:01:29.074Z,19.75
2022-09-04T01:04:19.440Z,19.84
2022-09-04T01:06:59.594Z,19.81
2022-09-04T01:09:59.842Z,19.71
2022-09-04T01:12:39.760Z,19.70
2022-09-04T01:15:15.770Z,19.79
2022-09-04T01:17:56.561Z,19.73
2022-09-04T01:20:47.046Z,19.77
2022-09-04T01:23:44.335Z,19.66
2022-09-04T01:26:20.974Z,19.59
2022-09-04T01:29:03.209Z,19.60
2022-09-04T01:31:40.562Z,19.60
2022-09-04T01:34:23.035Z,19.63
2022-09-04T01:36:57.445Z,19.60
2022-09-04T01:39:31.599Z,19.56
2022-09-04T01:42:06.542Z,19.61
2022-09-04T01:44:34.811Z,19.59
2022-09-04T01:47:12.677Z,19.59
2022-09-04T01:49:47.202Z,19.47
2022-09-04T01:52:36.696Z,19.45
2022-09-04T01:55:20.184Z,19.57
2022-09-04T01:57:58.357Z,19.60
2022-09-04T02:00:31.438Z,19.51
2022-09-04T02:03:08.657Z,19.57
2022-09-04T02:05:49.649Z,19.65
2022-09-04T02:08:36.517Z,19.58
2022-09-04T02:11:10.766Z,19.33
2022-09-04T02:13:56.497Z,19.51
2022-09-04T02:16:34.239Z,19.53
2022-09-04T02:19:13.489Z,19.43
2022-09-04T02:21:46.018Z,19.48
2022-09-04T02:24:25.472Z,19.44
2022-09-04T02:26:59.598Z,19.46
2022-09-04T02:29:35.024Z,19.39
2022-09-04T02:32:06.638Z,19.41
2022-09-04T02:34:43.966Z,19.42
2022-09-04T02:37:19.792Z,19.40
2022-09-04T02:39:58.657Z,19.37
2022-09-04T02:42:32.696Z,19.39
2022-09-04T02:45:14.665Z,19.44
2022-09-04T02:47:50.161Z,19.42
2022-09-04T02:50:31.032Z,19.45
2022-09-04T02:53:11.151Z,19.40
2022-09-04T02:55:54.181Z,19.45
2022-09-04T02:58:36.934Z,19.37
2022-09-04T03:01:15.182Z,19.32
2022-09-04T03:03:49.264Z,19.28
2022-09-04T03:06:23.911Z,19.25
2022-09-04T03:08:57.203Z,18.91
2022-09-04T03:11:33.050Z,18.88
2022-09-04T03:14:08.197Z,18.81
2022-09-04T03:16:44.682Z,18.77
2022-09-04T03:19:19.902Z,18.85
2022-09-04T03:21:54.563Z,18.82
2022-09-04T03:24:27.572Z,18.88
2022-09-04T03:26:57.835Z,18.90
2022-09-04T03:29:34.867Z,18.94
2022-09-04T03:32:16.288Z,18.95
2022-09-04T03:34:53.443Z,18.96
2022-09-04T03:37:32.288Z,18.90
2022-09-04T03:40:13.186Z,18.94
2022-09-04T03:42:58.786Z,19.03
2022-09-04T03:45:37.491Z,18.97
2022-09-04T03:48:17.789Z,18.85
2022-09-04T03:50:53.604Z,18.82
2022-09-04T03:53:31.818Z,18.90
2022-09-04T03:56:31.359Z,18.89
2022-09-04T03:59:04.998Z,18.79
2022-09-04T04:01:43.357Z,18.79
2022-09-04T04:04:44.193Z,18.61
2022-09-04T04:07:29.284Z,18.71
2022-09-04T04:10:15.211Z,18.70
2022-09-04T04:13:12.356Z,18.67
2022-09-04T04:15:59.236Z,18.62
2022-09-04T04:18:43.654Z,18.61
2022-09-04T04:21:23.976Z,18.63
2022-09-04T04:24:12.484Z,18.53
2022-09-04T04:26:54.924Z,18.49
2022-09-04T04:29:50.574Z,18.50
2022-09-04T04:32:34.498Z,18.51
2022-09-04T04:35:27.546Z,18.48
2022-09-04T04:38:09.705Z,18.38
2022-09-04T04:40:53.932Z,18.31
2022-09-04T04:43:32.671Z,18.31
2022-09-04T04:46:09.878Z,18.27
2022-09-04T04:49:14.316Z,18.33
2022-09-04T04:52:01.657Z,18.29
2022-09-04T04:54:52.661Z,18.25
2022-09-04T04:57:33.148Z,18.25
2022-09-04T05:00:11.487Z,18.17
2022-09-04T05:02:51.953Z,18.19
2022-09-04T05:05:43.759Z,18.19
2022-09-04T05:08:23.330Z,18.09
2022-09-04T05:10:57.702Z,18.11
2022-09-04T05:13:35.562Z,18.15
2022-09-04T05:16:16.650Z,18.20
2022-09-04T05:18:56.126Z,18.16
2022-09-04T05:21:32.289Z,18.14
2022-09-04T05:24:09.916Z,18.11
2022-09-04T05:26:47.977Z,18.08
2022-09-04T05:29:27.221Z,18.13
2022-09-04T05:32:03.182Z,18.09
2022-09-04T05:34:38.143Z,18.02
2022-09-04T05:37:16.486Z,18.03
2022-09-04T05:39:55.799Z,18.05
2022-09-04T05:42:45.537Z,18.03
2022-09-04T05:45:24.432Z,18.04
2022-09-04T05:48:02.867Z,18.00
2022-09-04T05:50:57.197Z,17.98
2022-09-04T05:53:59.158Z,17.96
2022-09-04T05:56:56.763Z,17.91
2022-09-04T05:59:48.987Z,17.91
2022-09-04T06:02:48.290Z,17.93
2022-09-04T06:05:39.203Z,17.92
2022-09-04T06:08:24.129Z,17.94
2022-09-04T06:11:07.522Z,17.87
2022-09-04T06:14:02.857Z,17.98
2022-09-04T06:16:46.128Z,18.04
2022-09-04T06:19:30.432Z,18.13
2022-09-04T06:22:26.270Z,18.18
2022-09-04T06:25:13.669Z,18.19
2022-09-04T06:28:09.480Z,18.27
2022-09-04T06:30:45.866Z,18.34
2022-09-04T06:33:38.802Z,18.47
2022-09-04T06:36:25.856Z,18.54
2022-09-04T06:39:21.526Z,18.69
2022-09-04T06:42:06.017Z,18.59
2022-09-04T06:44:48.161Z,18.57
2022-09-04T06:47:26.273Z,18.69
2022-09-04T06:50:12.230Z,18.74
2022-09-04T06:52:48.329Z,18.80
2022-09-04T06:55:28.857Z,18.80
2022-09-04T06:58:19.741Z,18.81
2022-09-04T07:00:54.244Z,18.86
2022-09-04T07:03:38.248Z,19.00
2022-09-04T07:06:15.319Z,19.10
2022-09-04T07:09:00.369Z,19.22
2022-09-04T07:11:46.025Z,19.39
2022-09-04T07:14:35.811Z,19.43
2022-09-04T07:17:16.049Z,19.59
2022-09-04T07:19:56.008Z,19.78
2022-09-04T07:22:49.145Z,19.81
2022-09-04T07:25:26.302Z,19.84
2022-09-04T07:28:15.887Z,19.77
2022-09-04T07:30:49.874Z,19.93
2022-09-04T07:33:29.491Z,20.04
2022-09-04T07:36:08.137Z,20.16
2022-09-04T07:38:50.435Z,20.34
2022-09-04T07:41:31.353Z,20.48
2022-09-04T07:44:07.023Z,20.57
2022-09-04T07:46:47.047Z,20.72
2022-09-04T07:49:24.041Z,20.74
2022-09-04T07:51:59.578Z,20.76
2022-09-04T07:55:00.874Z,20.86
2022-09-04T07:57:47.561Z,20.95
2022-09-04T08:00:18.206Z,20.96
2022-09-04T08:03:30.557Z,21.13
2022-09-04T08:06:11.786Z,21.41
2022-09-04T08:08:59.047Z,21.68
2022-09-04T08:11:42.583Z,21.70
2022-09-04T08:14:24.885Z,22.02
2022-09-04T08:17:07.463Z,22.13
2022-09-04T08:19:45.660Z,22.27
2022-09-04T08:22:20.043Z,22.60
2022-09-04T08:25:18.290Z,22.64
2022-09-04T08:28:10.571Z,22.39
2022-09-04T08:30:47.559Z,22.16
2022-09-04T08:33:32.421Z,22.10
2022-09-04T08:36:04.415Z,21.94
2022-09-04T08:38:56.589Z,21.93
2022-09-04T08:42:00.398Z,22.07
2022-09-04T08:45:22.279Z,22.29
2022-09-04T08:48:32.593Z,22.60
2022-09-04T08:51:45.816Z,22.77
2022-09-04T08:54:48.481Z,22.77
2022-09-04T08:57:40.341Z,22.54
2022-09-04T09:00:15.285Z,22.69
2022-09-04T09:03:22.739Z,22.91
2022-09-04T09:06:33.070Z,23.07
2022-09-04T09:09:33.910Z,23.18
2022-09-04T09:12:41.243Z,23.13
2022-09-04T09:15:43.473Z,23.37
2022-09-04T09:18:35.821Z,23.54
2022-09-04T09:21:09.874Z,23.71
2022-09-04T09:23:45.757Z,23.57
2022-09-04T09:26:26.667Z,23.74
2022-09-04T09:29:30.516Z,23.90
2022-09-04T09:32:39.877Z,24.17
2022-09-04T09:35:34.092Z,24.33
2022-09-04T09:38:35.542Z,24.33
2022-09-04T09:41:39.440Z,24.93
2022-09-04T09:44:52.806Z,25.06
2022-09-04T09:47:56.521Z,25.29
2022-09-04T09:51:10.670Z,25.06
2022-09-04T09:54:26.823Z,25.14
2022-09-04T09:57:33.162Z,25.07
2022-09-04T10:00:17.419Z,25.02
2022-09-04T10:03:19.472Z,25.19
2022-09-04T10:06:29.806Z,25.30
2022-09-04T10:09:28.336Z,25.65
2022-09-04T10:12:36.697Z,25.79
2022-09-04T10:15:29.500Z,25.81
2022-09-04T10:18:49.198Z,25.61
2022-09-04T10:21:44.947Z,25.36
2022-09-04T10:24:52.617Z,25.17
2022-09-04T10:27:49.416Z,25.73
2022-09-04T10:30:19.975Z,25.62
2022-09-04T10:33:18.800Z,25.56
2022-09-04T10:36:06.338Z,25.48
2022-09-04T10:39:00.500Z,25.63
2022-09-04T10:41:53.616Z,25.43
2022-09-04T10:44:46.302Z,25.60
2022-09-04T10:47:33.118Z,25.53
2022-09-04T10:50:24.205Z,25.86
2022-09-04T10:53:21.489Z,25.94
2022-09-04T10:56:17.100Z,25.97
2022-09-04T10:59:09.911Z,25.88
2022-09-04T11:02:03.746Z,26.01
2022-09-04T11:04:59.918Z,26.08
2022-09-04T11:07:45.066Z,26.24
2022-09-04T11:10:32.141Z,26.30
2022-09-04T11:13:33.874Z,26.60
2022-09-04T11:16:18.351Z,26.54
2022-09-04T11:19:21.073Z,26.81
2022-09-04T11:22:27.678Z,26.57
2022-09-04T11:25:23.961Z,26.82
2022-09-04T11:28:15.896Z,26.78
2022-09-04T11:31:09.496Z,26.80
2022-09-04T11:33:57.794Z,27.28
2022-09-04T11:37:18.668Z,27.39
2022-09-04T11:40:22.613Z,27.65
2022-09-04T11:43:18.772Z,27.46
2022-09-04T11:46:04.841Z,27.44
2022-09-04T11:48:57.216Z,27.31
2022-09-04T11:51:52.741Z,27.25
2022-09-04T11:54:44.877Z,27.24
2022-09-04T11:57:22.902Z,27.43
2022-09-04T12:00:15.082Z,27.85
2022-09-04T12:03:03.190Z,27.62
2022-09-04T12:05:53.867Z,27.42
2022-09-04T12:08:41.009Z,27.61
2022-09-04T12:11:42.245Z,27.29
2022-09-04T12:14:23.633Z,27.56
2022-09-04T12:17:18.826Z,27.82
2022-09-04T12:20:19.602Z,27.91
2022-09-04T12:23:14.197Z,28.31
2022-09-04T12:26:09.584Z,28.29
2022-09-04T12:29:30.985Z,27.97
2022-09-04T12:32:19.882Z,27.40
2022-09-04T12:35:17.633Z,27.08
2022-09-04T12:38:06.548Z,26.88
2022-09-04T12:40:35.898Z,26.84
2022-09-04T12:43:26.227Z,27.85
2022-09-04T12:46:09.115Z,28.85
2022-09-04T12:48:42.276Z,29.25
2022-09-04T12:51:16.698Z,29.92
2022-09-04T12:54:09.154Z,30.08
2022-09-04T12:56:49.601Z,29.50
2022-09-04T12:59:46.270Z,28.94
2022-09-04T13:02:24.113Z,28.19
2022-09-04T13:05:03.923Z,28.00
2022-09-04T13:07:46.590Z,27.68
2022-09-04T13:10:24.782Z,28.47
2022-09-04T13:13:05.213Z,29.52
2022-09-04T13:15:43.546Z,30.39
2022-09-04T13:18:25.749Z,30.65
2022-09-04T13:21:06.616Z,30.90
2022-09-04T13:23:47.745Z,30.78
2022-09-04T13:26:36.357Z,31.17
2022-09-04T13:29:17.033Z,30.84
2022-09-04T13:32:29.145Z,30.60
2022-09-04T13:35:09.709Z,30.47
2022-09-04T13:37:51.965Z,30.29
2022-09-04T13:40:33.492Z,30.36
2022-09-04T13:43:41.204Z,31.01
2022-09-04T13:46:13.651Z,30.23
2022-09-04T13:48:44.065Z,29.21
2022-09-04T13:51:17.713Z,28.58
2022-09-04T13:54:04.991Z,28.38
2022-09-04T13:56:41.115Z,28.36
2022-09-04T13:59:16.287Z,28.86
2022-09-04T14:01:48.142Z,29.86
2022-09-04T14:04:26.663Z,30.68
2022-09-04T14:06:59.764Z,31.27
2022-09-04T14:09:31.861Z,30.85
2022-09-04T14:12:15.622Z,30.78
2022-09-04T14:15:09.901Z,29.90
2022-09-04T14:17:49.732Z,29.46
2022-09-04T14:20:23.388Z,28.63
2022-09-04T14:23:03.824Z,28.54
2022-09-04T14:25:41.109Z,28.36
2022-09-04T14:28:20.454Z,28.54
2022-09-04T14:31:02.270Z,28.60
2022-09-04T14:33:49.698Z,28.38
2022-09-04T14:36:34.345Z,29.37
2022-09-04T14:39:16.930Z,30.16
2022-09-04T14:42:02.325Z,30.39
2022-09-04T14:44:46.539Z,29.88
2022-09-04T14:47:25.478Z,29.51
2022-09-04T14:49:56.370Z,29.49
2022-09-04T14:52:32.542Z,29.52
2022-09-04T14:55:03.084Z,29.98
2022-09-04T14:57:41.330Z,30.19
2022-09-04T15:00:17.382Z,30.25
2022-09-04T15:02:52.418Z,30.33
2022-09-04T15:05:25.043Z,30.49
2022-09-04T15:07:57.602Z,30.65
2022-09-04T15:10:31.709Z,30.30
2022-09-04T15:13:35.308Z,30.45
2022-09-04T15:16:18.331Z,30.51
2022-09-04T15:19:13.065Z,30.36
2022-09-04T15:21:49.295Z,30.51
2022-09-04T15:24:26.579Z,30.45
2022-09-04T15:27:03.881Z,30.33
2022-09-04T15:29:40.769Z,30.39
2022-09-04T15:32:13.840Z,30.47
2022-09-04T15:34:42.895Z,30.58
2022-09-04T15:37:16.387Z,30.61
2022-09-04T15:39:55.136Z,30.50
2022-09-04T15:42:37.913Z,30.55
2022-09-04T15:45:11.103Z,30.45
2022-09-04T15:48:04.752Z,30.49
2022-09-04T15:50:37.629Z,30.29
2022-09-04T15:53:26.821Z,30.23
2022-09-04T15:56:07.070Z,30.67
2022-09-04T15:58:43.877Z,30.84
2022-09-04T16:01:18.639Z,30.65
2022-09-04T16:04:01.461Z,30.54
2022-09-04T16:06:32.866Z,30.28
2022-09-04T16:09:06.893Z,30.04
2022-09-04T16:11:39.365Z,29.90
2022-09-04T16:14:09.886Z,29.62
2022-09-04T16:16:46.651Z,29.75
2022-09-04T16:19:25.878Z,30.00
2022-09-04T16:22:07.738Z,30.14
2022-09-04T16:24:42.294Z,30.15
2022-09-04T16:27:14.918Z,30.35
2022-09-04T16:29:48.404Z,30.54
2022-09-04T16:32:23.421Z,30.58
2022-09-04T16:34:55.690Z,30.23
2022-09-04T16:37:31.646Z,30.31
2022-09-04T16:40:24.403Z,30.53
2022-09-04T16:43:00.096Z,30.54
2022-09-04T16:45:35.034Z,30.47
2022-09-04T16:48:21.953Z,30.13
2022-09-04T16:51:09.876Z,30.04
2022-09-04T16:53:58.993Z,29.92
2022-09-04T16:56:36.840Z,29.80
2022-09-04T16:59:21.817Z,29.82
2022-09-04T17:01:57.286Z,29.89
2022-09-04T17:04:40.102Z,29.60
2022-09-04T17:07:18.764Z,29.57
2022-09-04T17:10:01.790Z,29.07
2022-09-04T17:12:48.361Z,29.13
2022-09-04T17:15:29.826Z,28.60
2022-09-04T17:17:59.462Z,28.80
2022-09-04T17:21:33.558Z,28.79
2022-09-04T17:29:05.014Z,29.04
2022-09-04T17:29:08.243Z,29.11
2022-09-04T17:29:36.201Z,29.06
2022-09-04T17:32:44.286Z,28.95
2022-09-04T17:40:32.328Z,28.94
2022-09-04T17:40:50.142Z,28.95
2022-09-04T17:41:40.012Z,28.89
2022-09-04T17:44:26.709Z,28.92
2022-09-04T17:47:09.977Z,28.89
2022-09-04T17:49:44.709Z,28.78
2022-09-04T17:52:22.738Z,28.54
2022-09-04T17:54:52.806Z,28.65
2022-09-04T17:57:28.517Z,28.36
2022-09-04T18:00:04.031Z,27.17
2022-09-04T18:02:42.389Z,27.32
2022-09-04T18:05:20.007Z,26.95
2022-09-04T18:08:09.155Z,26.82
2022-09-04T18:10:52.368Z,26.92
2022-09-04T18:13:37.499Z,26.97
2022-09-04T18:16:19.050Z,26.72
2022-09-04T18:18:50.794Z,26.87
2022-09-04T18:21:24.828Z,26.64
2022-09-04T18:23:58.650Z,26.61
2022-09-04T18:26:41.222Z,26.61
2022-09-04T18:31:46.443Z,26.18
2022-09-04T18:37:15.980Z,26.09
2022-09-04T18:37:26.393Z,25.92
2022-09-04T18:39:04.087Z,25.37
2022-09-04T18:47:14.709Z,25.26
2022-09-04T18:50:30.007Z,24.98
2022-09-04T18:50:41.122Z,24.90
2022-09-04T18:51:19.534Z,25.02
2022-09-04T18:53:43.863Z,25.10
2022-09-04T18:56:20.859Z,25.27
2022-09-04T18:58:59.588Z,25.27
2022-09-04T19:01:34.475Z,25.15
2022-09-04T19:04:41.627Z,24.89
2022-09-04T19:07:13.193Z,24.69
2022-09-04T19:10:05.061Z,24.89
2022-09-04T19:12:47.631Z,24.93
2022-09-04T19:15:57.445Z,24.47
2022-09-04T19:18:32.177Z,24.30
2022-09-04T19:21:17.006Z,24.35
2022-09-04T19:23:51.375Z,24.25
2022-09-04T19:26:29.656Z,24.03
2022-09-04T19:29:02.779Z,23.96
2022-09-04T19:31:39.005Z,23.75
2022-09-04T19:34:18.778Z,23.86
2022-09-04T19:36:52.740Z,24.07
2022-09-04T19:45:17.287Z,23.60
2022-09-04T19:45:59.933Z,23.47
2022-09-04T19:46:18.700Z,23.42
2022-09-04T19:48:32.115Z,23.78
2022-09-04T19:53:31.896Z,23.47
2022-09-04T19:54:07.297Z,23.45
2022-09-04T19:57:31.315Z,23.35
2022-09-04T19:59:42.246Z,23.35
2022-09-04T20:02:22.783Z,23.03
2022-09-04T20:04:57.349Z,23.14
2022-09-04T20:07:41.141Z,23.38
2022-09-04T20:10:20.961Z,23.30
2022-09-04T20:12:56.345Z,22.80
2022-09-04T20:15:31.575Z,23.06
2022-09-04T20:18:16.627Z,23.05
2022-09-04T20:20:56.233Z,23.12
2022-09-04T20:23:34.230Z,22.91
2022-09-04T20:26:07.680Z,23.11
2022-09-04T20:28:48.686Z,23.03
2022-09-04T20:31:36.968Z,22.88
2022-09-04T20:34:21.556Z,22.71
2022-09-04T20:36:57.546Z,22.94
2022-09-04T20:39:34.297Z,22.79
2022-09-04T20:42:08.003Z,22.81
2022-09-04T20:44:44.455Z,22.76
2022-09-04T20:52:41.636Z,22.30
2022-09-04T20:52:53.307Z,22.60
2022-09-04T20:53:32.775Z,22.49
2022-09-04T20:56:17.141Z,22.58
2022-09-04T21:03:23.854Z,22.19
2022-09-04T21:03:24.716Z,22.10
2022-09-04T21:05:23.546Z,22.38
2022-09-04T21:07:58.570Z,22.59
2022-09-04T21:10:33.059Z,22.49
2022-09-04T21:13:12.228Z,22.01
2022-09-04T21:15:54.794Z,22.26
2022-09-04T21:19:28.335Z,22.38
2022-09-04T21:22:14.102Z,22.23
2022-09-04T21:25:06.449Z,22.19
2022-09-04T21:27:54.627Z,22.15
2022-09-04T21:30:41.859Z,22.51
2022-09-04T21:33:27.855Z,22.31
2022-09-04T21:36:26.154Z,22.23
2022-09-04T21:39:24.733Z,22.35
2022-09-04T21:42:18.709Z,22.35
2022-09-04T21:45:24.541Z,21.72
2022-09-04T21:48:18.440Z,22.12
2022-09-04T21:51:00.535Z,22.23
2022-09-04T21:53:57.071Z,22.01
2022-09-04T22:02:27.187Z,22.11
2022-09-04T22:02:46.278Z,22.27
2022-09-04T22:03:36.442Z,22.09
2022-09-04T22:07:44.783Z,22.19
2022-09-04T22:13:29.102Z,22.39
2022-09-04T22:13:44.166Z,22.29
2022-09-04T22:15:06.796Z,22.14
2022-09-04T22:18:05.200Z,22.07
2022-09-04T22:20:54.845Z,22.16
2022-09-04T22:23:54.818Z,22.00
2022-09-04T22:26:50.809Z,21.67
2022-09-04T22:29:39.713Z,21.70
2022-09-04T22:32:54.726Z,21.94
2022-09-04T22:36:04.566Z,22.16
2022-09-04T22:38:54.850Z,22.23
2022-09-04T22:41:39.680Z,22.14
2022-09-04T22:44:24.612Z,22.22
2022-09-04T22:47:30.026Z,22.03
2022-09-04T22:50:36.273Z,22.10
2022-09-04T22:53:45.956Z,22.03
2022-09-04T22:56:24.241Z,21.93
2022-09-04T22:59:40.209Z,22.01
2022-09-04T23:03:08.134Z,21.92
2022-09-04T23:06:52.673Z,21.82
2022-09-04T23:13:44.685Z,21.69
2022-09-04T23:14:00.589Z,21.63
2022-09-04T23:15:44.898Z,21.56
2022-09-04T23:22:35.455Z,21.48
2022-09-04T23:26:44.993Z,21.48
2022-09-04T23:26:48.838Z,21.47
2022-09-04T23:27:34.905Z,21.42
2022-09-04T23:30:25.271Z,21.33
2022-09-04T23:33:40.350Z,21.30
2022-09-04T23:36:34.989Z,21.23
2022-09-04T23:39:46.349Z,21.14
2022-09-04T23:42:32.771Z,21.10
2022-09-04T23:45:29.154Z,20.93
2022-09-04T23:48:49.537Z,20.78
2022-09-04T23:51:27.837Z,20.72
2022-09-04T23:54:25.228Z,20.75
2022-09-04T23:57:01.258Z,20.84
2022-09-04T23:59:42.678Z,20.90
